Zlobin, Belarus

8:26 AM MSK on November 24, 2014 (GMT +0300)
Gomel | Change Station
CLOSE
Current Station
Airport
Location: Homiel,
Elevation: 472 ft
Nearby Weather Stations

Elev 472 ft 52.53 °N, 31.02 °E | Updated 26 minutes ago

Overcast
Overcast
23 °F
Feels Like 15 °F
N
7
Wind Variable Wind from SE

Today
High -- | Low -- °F
--% Chance of Precip.
Yesterday
High -- | Low -- °F
Precip. -- in
8:38 AM 4:54 PM
Waxing Crescent, 4% visible
Pressure 30.57 in
Visibility 5.6 miles
Clouds Overcast 1400 ft
Windchill 15 °F
Dew Point 19 °F
Humidity 86%
Rainfall 0.00 in
Snow Depth Not available.
UV 0 out of 12
Pollen Not available.
Air Quality Not available.
Flu Activity Not available.
METAR UMGG 240500Z 13003MPS 9000 OVC014 M05/M07 Q1035 R10/CLRD// NOSIG

More Conditions Fewer Conditions

Pressure 30.57 in
Visibility 5.6 miles
Clouds Overcast 1400 ft
Windchill 15 °F
Dew Point 19 °F
Humidity 86%
Rainfall 0.00 in
Snow Depth Not available.
UV 0 out of 12
Pollen Not available.
Air Quality Not available.
Flu Activity Not available.
METAR UMGG 240500Z 13003MPS 9000 OVC014 M05/M07 Q1035 R10/CLRD// NOSIG

More Conditions Fewer Conditions

10-Day Weather Forecast

Almanac

Astronomy

Nov. 24, 2014 Rise Set
Actual Time
Civil Twilight
Nautical Twilight
Astronomical Twilight
Moon
Length of Visible Light
Length of Day
Tomorrow will be .
, % of the Moon is Illuminated

Today's Extremes

Country Highs Country Lows

Community

WunderPhotos

Upload Photos

1,773,269 photos uploaded!

WunderBlogs® & News

Nearby

Air Quality

  Air Quality AQ Index Pollutant
Not available.

Snow Depth

Station Depth Elevation

Earthquake Activity

City Distance Mag. Time & Date
Minimum magnitude displayed is 2.5.

Coastal Water Temperatures

Place Temperature

Nearby Weather Stations